sensor_id;sensor_type;location;lat;lon;timestamp;temperature;humidity
7814;DHT22;3952;48.364;16.022;2022-07-29T00:02:12;20.20;99.90
7814;DHT22;3952;48.364;16.022;2022-07-29T00:04:39;20.10;99.90
7814;DHT22;3952;48.364;16.022;2022-07-29T00:07:07;20.10;99.90
7814;DHT22;3952;48.364;16.022;2022-07-29T00:09:35;20.10;99.90
7814;DHT22;3952;48.364;16.022;2022-07-29T00:12:04;20.10;99.90
7814;DHT22;3952;48.364;16.022;2022-07-29T00:14:31;20.10;99.90
7814;DHT22;3952;48.364;16.022;2022-07-29T00:16:58;20.00;99.90
7814;DHT22;3952;48.364;16.022;2022-07-29T00:19:25;19.90;99.90
7814;DHT22;3952;48.364;16.022;2022-07-29T00:21:53;19.90;99.90
7814;DHT22;3952;48.364;16.022;2022-07-29T00:24:20;19.80;99.90
7814;DHT22;3952;48.364;16.022;2022-07-29T00:26:49;19.70;99.90
7814;DHT22;3952;48.364;16.022;2022-07-29T00:29:16;19.70;99.90
7814;DHT22;3952;48.364;16.022;2022-07-29T00:31:43;19.60;99.90
7814;DHT22;3952;48.364;16.022;2022-07-29T00:34:10;19.60;99.90
7814;DHT22;3952;48.364;16.022;2022-07-29T00:36:51;19.60;99.90
7814;DHT22;3952;48.364;16.022;2022-07-29T00:39:19;19.60;99.90
7814;DHT22;3952;48.364;16.022;2022-07-29T00:41:46;19.60;99.90
7814;DHT22;3952;48.364;16.022;2022-07-29T00:44:14;19.60;99.90
7814;DHT22;3952;48.364;16.022;2022-07-29T00:46:42;19.60;99.90
7814;DHT22;3952;48.364;16.022;2022-07-29T00:49:09;19.60;99.90
7814;DHT22;3952;48.364;16.022;2022-07-29T00:51:37;19.50;99.90
7814;DHT22;3952;48.364;16.022;2022-07-29T00:54:07;19.50;99.90
7814;DHT22;3952;48.364;16.022;2022-07-29T00:56:34;19.50;99.90
7814;DHT22;3952;48.364;16.022;2022-07-29T00:59:01;19.40;99.90
7814;DHT22;3952;48.364;16.022;2022-07-29T01:01:30;19.40;99.90
7814;DHT22;3952;48.364;16.022;2022-07-29T01:03:57;19.30;99.90
7814;DHT22;3952;48.364;16.022;2022-07-29T01:06:25;19.30;99.90
7814;DHT22;3952;48.364;16.022;2022-07-29T01:08:53;19.30;99.90
7814;DHT22;3952;48.364;16.022;2022-07-29T01:11:20;19.30;99.90
7814;DHT22;3952;48.364;16.022;2022-07-29T01:13:48;19.30;99.90
7814;DHT22;3952;48.364;16.022;2022-07-29T01:16:22;19.30;99.90
7814;DHT22;3952;48.364;16.022;2022-07-29T01:19:00;19.30;99.90
7814;DHT22;3952;48.364;16.022;2022-07-29T01:21:50;19.30;99.90
7814;DHT22;3952;48.364;16.022;2022-07-29T01:24:33;19.30;99.90
7814;DHT22;3952;48.364;16.022;2022-07-29T01:27:25;19.30;99.90
7814;DHT22;3952;48.364;16.022;2022-07-29T01:30:00;19.30;99.90
7814;DHT22;3952;48.364;16.022;2022-07-29T01:32:29;19.30;99.90
7814;DHT22;3952;48.364;16.022;2022-07-29T01:35:03;19.30;99.90
7814;DHT22;3952;48.364;16.022;2022-07-29T01:37:36;19.20;99.90
7814;DHT22;3952;48.364;16.022;2022-07-29T01:40:09;19.10;99.90
7814;DHT22;3952;48.364;16.022;2022-07-29T01:42:42;19.00;99.90
7814;DHT22;3952;48.364;16.022;2022-07-29T01:45:15;18.90;99.90
7814;DHT22;3952;48.364;16.022;2022-07-29T01:47:49;18.80;99.90
7814;DHT22;3952;48.364;16.022;2022-07-29T01:50:23;18.70;99.90
7814;DHT22;3952;48.364;16.022;2022-07-29T01:52:56;18.70;99.90
7814;DHT22;3952;48.364;16.022;2022-07-29T01:55:28;18.70;99.90
7814;DHT22;3952;48.364;16.022;2022-07-29T01:57:58;18.60;99.90
7814;DHT22;3952;48.364;16.022;2022-07-29T02:00:28;18.50;99.90
7814;DHT22;3952;48.364;16.022;2022-07-29T02:02:56;18.50;99.90
7814;DHT22;3952;48.364;16.022;2022-07-29T02:05:27;18.30;99.90
7814;DHT22;3952;48.364;16.022;2022-07-29T02:07:58;18.20;99.90
7814;DHT22;3952;48.364;16.022;2022-07-29T02:10:29;18.10;99.90
7814;DHT22;3952;48.364;16.022;2022-07-29T02:12:59;18.00;99.90
7814;DHT22;3952;48.364;16.022;2022-07-29T02:15:32;18.00;99.90
7814;DHT22;3952;48.364;16.022;2022-07-29T02:18:03;17.90;99.90
7814;DHT22;3952;48.364;16.022;2022-07-29T02:20:32;17.90;99.90
7814;DHT22;3952;48.364;16.022;2022-07-29T02:23:02;17.90;99.90
7814;DHT22;3952;48.364;16.022;2022-07-29T02:25:30;17.90;99.90
7814;DHT22;3952;48.364;16.022;2022-07-29T02:27:59;17.80;99.90
7814;DHT22;3952;48.364;16.022;2022-07-29T02:30:29;17.80;99.90
7814;DHT22;3952;48.364;16.022;2022-07-29T02:32:58;17.70;99.90
7814;DHT22;3952;48.364;16.022;2022-07-29T02:35:26;17.70;99.90
7814;DHT22;3952;48.364;16.022;2022-07-29T02:37:54;17.60;99.90
7814;DHT22;3952;48.364;16.022;2022-07-29T02:40:40;17.60;99.90
7814;DHT22;3952;48.364;16.022;2022-07-29T02:43:10;17.50;99.90
7814;DHT22;3952;48.364;16.022;2022-07-29T02:45:39;17.50;99.90
7814;DHT22;3952;48.364;16.022;2022-07-29T02:48:10;17.40;99.90
7814;DHT22;3952;48.364;16.022;2022-07-29T02:50:46;17.40;99.90
7814;DHT22;3952;48.364;16.022;2022-07-29T02:53:18;17.40;99.90
7814;DHT22;3952;48.364;16.022;2022-07-29T02:55:53;17.50;99.90
7814;DHT22;3952;48.364;16.022;2022-07-29T02:58:25;17.50;99.90
7814;DHT22;3952;48.364;16.022;2022-07-29T03:00:56;17.40;99.90
7814;DHT22;3952;48.364;16.022;2022-07-29T03:03:27;17.40;99.90
7814;DHT22;3952;48.364;16.022;2022-07-29T03:05:57;17.40;99.90
7814;DHT22;3952;48.364;16.022;2022-07-29T03:08:25;17.40;99.90
7814;DHT22;3952;48.364;16.022;2022-07-29T03:10:53;17.40;99.90
7814;DHT22;3952;48.364;16.022;2022-07-29T03:13:22;17.40;99.90
7814;DHT22;3952;48.364;16.022;2022-07-29T03:15:50;17.40;99.90
7814;DHT22;3952;48.364;16.022;2022-07-29T03:18:19;17.40;99.90
7814;DHT22;3952;48.364;16.022;2022-07-29T03:20:46;17.40;99.90
7814;DHT22;3952;48.364;16.022;2022-07-29T03:23:19;17.40;99.90
7814;DHT22;3952;48.364;16.022;2022-07-29T03:25:48;17.40;99.90
7814;DHT22;3952;48.364;16.022;2022-07-29T03:28:16;17.50;99.90
7814;DHT22;3952;48.364;16.022;2022-07-29T03:30:43;17.40;99.90
7814;DHT22;3952;48.364;16.022;2022-07-29T03:33:10;17.40;99.90
7814;DHT22;3952;48.364;16.022;2022-07-29T03:35:39;17.40;99.90
7814;DHT22;3952;48.364;16.022;2022-07-29T03:38:06;17.30;99.90
7814;DHT22;3952;48.364;16.022;2022-07-29T03:40:42;17.30;99.90
7814;DHT22;3952;48.364;16.022;2022-07-29T03:43:10;17.40;99.90
7814;DHT22;3952;48.364;16.022;2022-07-29T03:45:39;17.40;99.90
7814;DHT22;3952;48.364;16.022;2022-07-29T03:48:12;17.40;99.90
7814;DHT22;3952;48.364;16.022;2022-07-29T03:50:42;17.40;99.90
7814;DHT22;3952;48.364;16.022;2022-07-29T03:53:09;17.40;99.90
7814;DHT22;3952;48.364;16.022;2022-07-29T03:55:41;17.40;99.90
7814;DHT22;3952;48.364;16.022;2022-07-29T03:58:09;17.40;99.90
7814;DHT22;3952;48.364;16.022;2022-07-29T04:00:38;17.40;99.90
7814;DHT22;3952;48.364;16.022;2022-07-29T04:03:05;17.40;99.90
7814;DHT22;3952;48.364;16.022;2022-07-29T04:05:32;17.30;99.90
7814;DHT22;3952;48.364;16.022;2022-07-29T04:08:01;17.30;99.90
7814;DHT22;3952;48.364;16.022;2022-07-29T04:10:28;17.30;99.90
7814;DHT22;3952;48.364;16.022;2022-07-29T04:12:56;17.30;99.90
7814;DHT22;3952;48.364;16.022;2022-07-29T04:15:23;17.30;99.90
7814;DHT22;3952;48.364;16.022;2022-07-29T04:17:50;17.30;99.90
7814;DHT22;3952;48.364;16.022;2022-07-29T04:20:17;17.30;99.90
7814;DHT22;3952;48.364;16.022;2022-07-29T04:22:45;17.30;99.90
7814;DHT22;3952;48.364;16.022;2022-07-29T04:25:15;17.30;99.90
7814;DHT22;3952;48.364;16.022;2022-07-29T04:27:42;17.20;99.90
7814;DHT22;3952;48.364;16.022;2022-07-29T04:30:23;17.20;99.90
7814;DHT22;3952;48.364;16.022;2022-07-29T04:32:50;17.30;99.90
7814;DHT22;3952;48.364;16.022;2022-07-29T04:35:17;17.20;99.90
7814;DHT22;3952;48.364;16.022;2022-07-29T04:37:45;17.50;99.90
7814;DHT22;3952;48.364;16.022;2022-07-29T04:40:14;17.40;99.90
7814;DHT22;3952;48.364;16.022;2022-07-29T04:42:41;17.40;99.90
7814;DHT22;3952;48.364;16.022;2022-07-29T04:45:08;17.40;99.90
7814;DHT22;3952;48.364;16.022;2022-07-29T04:47:36;17.50;99.90
7814;DHT22;3952;48.364;16.022;2022-07-29T04:50:04;17.60;99.90
7814;DHT22;3952;48.364;16.022;2022-07-29T04:52:32;17.90;99.90
7814;DHT22;3952;48.364;16.022;2022-07-29T04:55:00;18.40;99.90
7814;DHT22;3952;48.364;16.022;2022-07-29T04:57:28;18.80;99.90
7814;DHT22;3952;48.364;16.022;2022-07-29T04:59:56;19.10;99.90
7814;DHT22;3952;48.364;16.022;2022-07-29T05:02:23;19.30;99.90
7814;DHT22;3952;48.364;16.022;2022-07-29T05:04:50;19.20;99.90
7814;DHT22;3952;48.364;16.022;2022-07-29T05:07:17;19.10;99.90
7814;DHT22;3952;48.364;16.022;2022-07-29T05:09:44;19.10;99.90
7814;DHT22;3952;48.364;16.022;2022-07-29T05:12:12;19.00;99.90
7814;DHT22;3952;48.364;16.022;2022-07-29T05:14:40;18.90;99.90
7814;DHT22;3952;48.364;16.022;2022-07-29T05:17:08;18.80;99.90
7814;DHT22;3952;48.364;16.022;2022-07-29T05:19:35;18.80;99.90
7814;DHT22;3952;48.364;16.022;2022-07-29T05:22:02;18.80;99.90
7814;DHT22;3952;48.364;16.022;2022-07-29T05:24:29;18.80;99.90
7814;DHT22;3952;48.364;16.022;2022-07-29T05:26:57;18.90;99.90
7814;DHT22;3952;48.364;16.022;2022-07-29T05:29:24;18.90;99.90
7814;DHT22;3952;48.364;16.022;2022-07-29T05:31:53;19.00;99.90
7814;DHT22;3952;48.364;16.022;2022-07-29T05:34:20;19.10;99.90
7814;DHT22;3952;48.364;16.022;2022-07-29T05:36:47;19.10;99.90
7814;DHT22;3952;48.364;16.022;2022-07-29T05:39:14;19.20;99.90
7814;DHT22;3952;48.364;16.022;2022-07-29T05:41:41;19.20;99.90
7814;DHT22;3952;48.364;16.022;2022-07-29T05:44:09;19.30;99.90
7814;DHT22;3952;48.364;16.022;2022-07-29T05:46:37;19.30;99.90
7814;DHT22;3952;48.364;16.022;2022-07-29T05:49:05;19.30;99.90
7814;DHT22;3952;48.364;16.022;2022-07-29T05:51:33;19.40;99.90
7814;DHT22;3952;48.364;16.022;2022-07-29T05:54:00;19.50;99.90
7814;DHT22;3952;48.364;16.022;2022-07-29T05:56:28;19.60;99.90
7814;DHT22;3952;48.364;16.022;2022-07-29T05:58:55;19.80;99.90
7814;DHT22;3952;48.364;16.022;2022-07-29T06:01:22;19.90;99.90
7814;DHT22;3952;48.364;16.022;2022-07-29T06:03:49;20.00;99.90
7814;DHT22;3952;48.364;16.022;2022-07-29T06:06:18;20.20;99.90
7814;DHT22;3952;48.364;16.022;2022-07-29T06:08:45;20.20;99.90
7814;DHT22;3952;48.364;16.022;2022-07-29T06:11:12;20.30;99.90
7814;DHT22;3952;48.364;16.022;2022-07-29T06:13:40;20.40;99.90
7814;DHT22;3952;48.364;16.022;2022-07-29T06:16:07;20.50;99.90
7814;DHT22;3952;48.364;16.022;2022-07-29T06:18:34;20.50;99.90
7814;DHT22;3952;48.364;16.022;2022-07-29T06:21:06;20.50;99.90
7814;DHT22;3952;48.364;16.022;2022-07-29T06:23:36;20.50;99.90
7814;DHT22;3952;48.364;16.022;2022-07-29T06:26:03;20.60;99.90
7814;DHT22;3952;48.364;16.022;2022-07-29T06:28:31;20.60;99.90
7814;DHT22;3952;48.364;16.022;2022-07-29T06:30:58;20.70;99.90
7814;DHT22;3952;48.364;16.022;2022-07-29T06:33:26;20.80;99.90
7814;DHT22;3952;48.364;16.022;2022-07-29T06:35:53;20.80;99.90
7814;DHT22;3952;48.364;16.022;2022-07-29T06:38:20;20.90;99.90
7814;DHT22;3952;48.364;16.022;2022-07-29T06:40:49;20.90;99.90
7814;DHT22;3952;48.364;16.022;2022-07-29T06:43:35;20.90;99.90
7814;DHT22;3952;48.364;16.022;2022-07-29T06:46:05;20.90;99.90
7814;DHT22;3952;48.364;16.022;2022-07-29T06:48:34;21.00;99.90
7814;DHT22;3952;48.364;16.022;2022-07-29T06:51:02;21.00;99.90
7814;DHT22;3952;48.364;16.022;2022-07-29T06:53:29;21.00;99.90
7814;DHT22;3952;48.364;16.022;2022-07-29T06:55:59;21.10;99.90
7814;DHT22;3952;48.364;16.022;2022-07-29T06:58:27;21.10;99.90
7814;DHT22;3952;48.364;16.022;2022-07-29T07:00:54;21.10;99.90
7814;DHT22;3952;48.364;16.022;2022-07-29T07:03:22;21.00;99.90
7814;DHT22;3952;48.364;16.022;2022-07-29T07:05:49;21.00;99.90
7814;DHT22;3952;48.364;16.022;2022-07-29T07:08:17;20.90;99.90
7814;DHT22;3952;48.364;16.022;2022-07-29T07:10:45;20.90;99.90
7814;DHT22;3952;48.364;16.022;2022-07-29T07:13:14;20.90;99.90
7814;DHT22;3952;48.364;16.022;2022-07-29T07:15:43;20.90;99.90
7814;DHT22;3952;48.364;16.022;2022-07-29T07:18:13;20.90;99.90
7814;DHT22;3952;48.364;16.022;2022-07-29T07:20:41;21.00;99.90
7814;DHT22;3952;48.364;16.022;2022-07-29T07:23:08;21.00;99.90
7814;DHT22;3952;48.364;16.022;2022-07-29T07:25:35;21.10;99.90
7814;DHT22;3952;48.364;16.022;2022-07-29T07:28:03;21.10;99.90
7814;DHT22;3952;48.364;16.022;2022-07-29T07:30:31;21.10;99.90
7814;DHT22;3952;48.364;16.022;2022-07-29T07:32:59;21.10;99.90
7814;DHT22;3952;48.364;16.022;2022-07-29T07:35:27;21.10;99.90
7814;DHT22;3952;48.364;16.022;2022-07-29T07:37:54;21.10;99.90
7814;DHT22;3952;48.364;16.022;2022-07-29T07:40:22;21.20;99.90
7814;DHT22;3952;48.364;16.022;2022-07-29T07:42:49;21.30;99.90
7814;DHT22;3952;48.364;16.022;2022-07-29T07:45:16;21.30;99.90
7814;DHT22;3952;48.364;16.022;2022-07-29T07:47:45;21.40;99.90
7814;DHT22;3952;48.364;16.022;2022-07-29T07:50:12;21.60;99.90
7814;DHT22;3952;48.364;16.022;2022-07-29T07:52:47;21.80;99.90
7814;DHT22;3952;48.364;16.022;2022-07-29T07:55:15;22.00;99.90
7814;DHT22;3952;48.364;16.022;2022-07-29T07:57:43;22.20;99.90
7814;DHT22;3952;48.364;16.022;2022-07-29T08:00:12;22.40;99.90
7814;DHT22;3952;48.364;16.022;2022-07-29T08:02:40;22.60;99.90
7814;DHT22;3952;48.364;16.022;2022-07-29T08:05:10;22.70;99.90
7814;DHT22;3952;48.364;16.022;2022-07-29T08:07:39;22.90;99.90
7814;DHT22;3952;48.364;16.022;2022-07-29T08:10:07;23.00;99.90
7814;DHT22;3952;48.364;16.022;2022-07-29T08:12:35;23.10;99.90
7814;DHT22;3952;48.364;16.022;2022-07-29T08:15:02;23.20;99.90
7814;DHT22;3952;48.364;16.022;2022-07-29T08:17:30;23.30;99.90
7814;DHT22;3952;48.364;16.022;2022-07-29T08:19:57;23.30;99.90
7814;DHT22;3952;48.364;16.022;2022-07-29T08:22:26;23.40;99.90
7814;DHT22;3952;48.364;16.022;2022-07-29T08:24:53;23.40;99.90
7814;DHT22;3952;48.364;16.022;2022-07-29T08:27:22;23.50;99.90
7814;DHT22;3952;48.364;16.022;2022-07-29T08:29:52;23.50;99.90
7814;DHT22;3952;48.364;16.022;2022-07-29T08:32:21;23.50;99.90
7814;DHT22;3952;48.364;16.022;2022-07-29T08:34:48;23.50;99.90
7814;DHT22;3952;48.364;16.022;2022-07-29T08:37:15;23.50;99.90
7814;DHT22;3952;48.364;16.022;2022-07-29T08:39:44;23.50;99.90
7814;DHT22;3952;48.364;16.022;2022-07-29T08:42:11;23.40;99.90
7814;DHT22;3952;48.364;16.022;2022-07-29T08:44:39;23.40;99.90
7814;DHT22;3952;48.364;16.022;2022-07-29T08:47:06;23.30;99.90
7814;DHT22;3952;48.364;16.022;2022-07-29T08:49:34;23.30;99.90
7814;DHT22;3952;48.364;16.022;2022-07-29T08:52:02;23.20;99.90
7814;DHT22;3952;48.364;16.022;2022-07-29T08:54:30;23.20;99.90
7814;DHT22;3952;48.364;16.022;2022-07-29T08:56:58;23.10;99.90
7814;DHT22;3952;48.364;16.022;2022-07-29T08:59:27;23.10;99.90
7814;DHT22;3952;48.364;16.022;2022-07-29T09:01:57;23.10;99.90
7814;DHT22;3952;48.364;16.022;2022-07-29T09:04:30;23.10;99.90
7814;DHT22;3952;48.364;16.022;2022-07-29T09:07:01;23.10;99.90
7814;DHT22;3952;48.364;16.022;2022-07-29T09:09:30;23.10;99.90
7814;DHT22;3952;48.364;16.022;2022-07-29T09:12:00;23.00;99.90
7814;DHT22;3952;48.364;16.022;2022-07-29T09:14:29;22.90;99.90
7814;DHT22;3952;48.364;16.022;2022-07-29T09:16:57;22.90;99.90
7814;DHT22;3952;48.364;16.022;2022-07-29T09:19:26;22.90;99.90
7814;DHT22;3952;48.364;16.022;2022-07-29T09:21:55;22.90;99.90
7814;DHT22;3952;48.364;16.022;2022-07-29T09:24:37;22.80;99.90
7814;DHT22;3952;48.364;16.022;2022-07-29T09:27:18;22.80;99.90
7814;DHT22;3952;48.364;16.022;2022-07-29T09:29:46;22.80;99.90
7814;DHT22;3952;48.364;16.022;2022-07-29T09:32:14;22.80;99.90
7814;DHT22;3952;48.364;16.022;2022-07-29T09:34:41;22.80;99.90
7814;DHT22;3952;48.364;16.022;2022-07-29T09:37:08;22.70;99.90
7814;DHT22;3952;48.364;16.022;2022-07-29T09:39:39;22.70;99.90
7814;DHT22;3952;48.364;16.022;2022-07-29T09:42:12;22.60;99.90
7814;DHT22;3952;48.364;16.022;2022-07-29T09:44:45;22.60;99.90
7814;DHT22;3952;48.364;16.022;2022-07-29T09:47:14;22.60;99.90
7814;DHT22;3952;48.364;16.022;2022-07-29T09:49:53;22.60;99.90
7814;DHT22;3952;48.364;16.022;2022-07-29T09:52:23;22.60;99.90
7814;DHT22;3952;48.364;16.022;2022-07-29T09:54:51;22.60;99.90
7814;DHT22;3952;48.364;16.022;2022-07-29T09:57:25;22.60;99.90
7814;DHT22;3952;48.364;16.022;2022-07-29T09:59:57;22.60;99.90
7814;DHT22;3952;48.364;16.022;2022-07-29T10:02:29;22.60;99.90
7814;DHT22;3952;48.364;16.022;2022-07-29T10:04:57;22.60;99.90
7814;DHT22;3952;48.364;16.022;2022-07-29T10:07:25;22.60;99.90
7814;DHT22;3952;48.364;16.022;2022-07-29T10:09:54;22.60;99.90
7814;DHT22;3952;48.364;16.022;2022-07-29T10:12:24;22.60;99.90
7814;DHT22;3952;48.364;16.022;2022-07-29T10:14:51;22.70;99.90
7814;DHT22;3952;48.364;16.022;2022-07-29T10:17:21;22.70;99.90
7814;DHT22;3952;48.364;16.022;2022-07-29T10:19:49;22.70;99.90
7814;DHT22;3952;48.364;16.022;2022-07-29T10:22:17;22.70;99.90
7814;DHT22;3952;48.364;16.022;2022-07-29T10:24:45;22.80;99.90
7814;DHT22;3952;48.364;16.022;2022-07-29T10:27:12;22.80;99.90
7814;DHT22;3952;48.364;16.022;2022-07-29T10:29:41;22.80;99.90
7814;DHT22;3952;48.364;16.022;2022-07-29T10:32:19;22.80;99.90
7814;DHT22;3952;48.364;16.022;2022-07-29T10:35:08;22.80;99.90
7814;DHT22;3952;48.364;16.022;2022-07-29T10:37:52;22.80;99.90
7814;DHT22;3952;48.364;16.022;2022-07-29T10:40:28;22.90;99.90
7814;DHT22;3952;48.364;16.022;2022-07-29T10:43:19;23.00;99.90
7814;DHT22;3952;48.364;16.022;2022-07-29T10:45:49;23.10;99.90
7814;DHT22;3952;48.364;16.022;2022-07-29T10:48:21;23.20;99.90
7814;DHT22;3952;48.364;16.022;2022-07-29T10:50:53;23.40;99.90
7814;DHT22;3952;48.364;16.022;2022-07-29T10:53:21;23.50;99.90
7814;DHT22;3952;48.364;16.022;2022-07-29T10:55:49;23.60;99.90
7814;DHT22;3952;48.364;16.022;2022-07-29T10:58:18;23.60;99.90
7814;DHT22;3952;48.364;16.022;2022-07-29T11:00:48;23.80;99.90
7814;DHT22;3952;48.364;16.022;2022-07-29T11:03:47;23.90;99.90
7814;DHT22;3952;48.364;16.022;2022-07-29T11:06:17;24.00;99.90
7814;DHT22;3952;48.364;16.022;2022-07-29T11:08:45;24.10;99.90
7814;DHT22;3952;48.364;16.022;2022-07-29T11:11:36;24.20;99.90
7814;DHT22;3952;48.364;16.022;2022-07-29T11:14:07;24.30;99.90
7814;DHT22;3952;48.364;16.022;2022-07-29T11:17:02;24.40;99.90
7814;DHT22;3952;48.364;16.022;2022-07-29T11:19:30;24.50;99.90
7814;DHT22;3952;48.364;16.022;2022-07-29T11:21:57;24.60;99.90
7814;DHT22;3952;48.364;16.022;2022-07-29T11:24:26;24.60;99.90
7814;DHT22;3952;48.364;16.022;2022-07-29T11:27:09;24.70;99.90
7814;DHT22;3952;48.364;16.022;2022-07-29T11:29:40;24.70;99.90
7814;DHT22;3952;48.364;16.022;2022-07-29T11:32:13;24.70;99.90
7814;DHT22;3952;48.364;16.022;2022-07-29T11:34:42;24.70;99.90
7814;DHT22;3952;48.364;16.022;2022-07-29T11:37:30;24.80;99.90
7814;DHT22;3952;48.364;16.022;2022-07-29T11:40:16;25.00;99.90
7814;DHT22;3952;48.364;16.022;2022-07-29T11:42:49;25.20;99.90
7814;DHT22;3952;48.364;16.022;2022-07-29T11:45:20;25.30;99.90
7814;DHT22;3952;48.364;16.022;2022-07-29T11:47:51;25.40;99.90
7814;DHT22;3952;48.364;16.022;2022-07-29T11:50:33;25.50;99.90
7814;DHT22;3952;48.364;16.022;2022-07-29T11:53:10;25.60;99.90
7814;DHT22;3952;48.364;16.022;2022-07-29T11:55:38;25.70;99.90
7814;DHT22;3952;48.364;16.022;2022-07-29T11:58:07;25.80;99.90
7814;DHT22;3952;48.364;16.022;2022-07-29T12:00:36;25.90;99.90
7814;DHT22;3952;48.364;16.022;2022-07-29T12:03:06;26.10;99.90
7814;DHT22;3952;48.364;16.022;2022-07-29T12:05:37;26.20;99.90
7814;DHT22;3952;48.364;16.022;2022-07-29T12:08:06;26.30;99.90
7814;DHT22;3952;48.364;16.022;2022-07-29T12:10:34;26.40;99.90
7814;DHT22;3952;48.364;16.022;2022-07-29T12:13:01;26.40;99.90
7814;DHT22;3952;48.364;16.022;2022-07-29T12:15:29;26.50;99.90
7814;DHT22;3952;48.364;16.022;2022-07-29T12:17:56;26.50;99.90
7814;DHT22;3952;48.364;16.022;2022-07-29T12:20:27;26.50;99.90
7814;DHT22;3952;48.364;16.022;2022-07-29T12:22:54;26.60;99.90
7814;DHT22;3952;48.364;16.022;2022-07-29T12:25:23;26.60;99.90
7814;DHT22;3952;48.364;16.022;2022-07-29T12:28:03;26.60;99.90
7814;DHT22;3952;48.364;16.022;2022-07-29T12:30:39;26.60;99.90
7814;DHT22;3952;48.364;16.022;2022-07-29T12:33:18;26.50;99.90
7814;DHT22;3952;48.364;16.022;2022-07-29T12:35:50;26.50;99.90
7814;DHT22;3952;48.364;16.022;2022-07-29T12:38:19;26.50;99.90
7814;DHT22;3952;48.364;16.022;2022-07-29T12:40:47;26.60;99.90
7814;DHT22;3952;48.364;16.022;2022-07-29T12:43:17;26.60;99.90
7814;DHT22;3952;48.364;16.022;2022-07-29T12:45:47;26.60;99.90
7814;DHT22;3952;48.364;16.022;2022-07-29T12:48:16;26.60;99.90
7814;DHT22;3952;48.364;16.022;2022-07-29T12:50:56;26.50;99.90
7814;DHT22;3952;48.364;16.022;2022-07-29T12:53:24;26.40;99.90
7814;DHT22;3952;48.364;16.022;2022-07-29T12:55:53;26.40;99.90
7814;DHT22;3952;48.364;16.022;2022-07-29T12:58:31;26.30;99.90
7814;DHT22;3952;48.364;16.022;2022-07-29T13:01:08;26.20;99.90
7814;DHT22;3952;48.364;16.022;2022-07-29T13:03:44;26.20;99.90
7814;DHT22;3952;48.364;16.022;2022-07-29T13:06:31;26.10;99.90
7814;DHT22;3952;48.364;16.022;2022-07-29T13:09:14;26.10;99.90
7814;DHT22;3952;48.364;16.022;2022-07-29T13:11:43;26.00;99.90
7814;DHT22;3952;48.364;16.022;2022-07-29T13:14:13;25.90;99.90
7814;DHT22;3952;48.364;16.022;2022-07-29T13:17:02;25.90;99.90
7814;DHT22;3952;48.364;16.022;2022-07-29T13:19:36;25.90;99.90
7814;DHT22;3952;48.364;16.022;2022-07-29T13:22:05;25.90;99.90
7814;DHT22;3952;48.364;16.022;2022-07-29T13:24:32;25.80;99.90
7814;DHT22;3952;48.364;16.022;2022-07-29T13:27:00;25.70;99.90
7814;DHT22;3952;48.364;16.022;2022-07-29T13:29:27;25.70;99.90
7814;DHT22;3952;48.364;16.022;2022-07-29T13:31:54;25.60;99.90
7814;DHT22;3952;48.364;16.022;2022-07-29T13:34:22;25.50;99.90
7814;DHT22;3952;48.364;16.022;2022-07-29T13:36:49;25.50;99.90
7814;DHT22;3952;48.364;16.022;2022-07-29T13:39:19;25.40;99.90
7814;DHT22;3952;48.364;16.022;2022-07-29T13:41:46;25.40;99.90
7814;DHT22;3952;48.364;16.022;2022-07-29T13:44:13;25.20;99.90
7814;DHT22;3952;48.364;16.022;2022-07-29T13:46:40;25.20;99.90
7814;DHT22;3952;48.364;16.022;2022-07-29T13:49:07;25.10;99.90
7814;DHT22;3952;48.364;16.022;2022-07-29T13:51:35;25.00;99.90
7814;DHT22;3952;48.364;16.022;2022-07-29T13:54:02;25.00;99.90
7814;DHT22;3952;48.364;16.022;2022-07-29T13:56:31;25.00;99.90
7814;DHT22;3952;48.364;16.022;2022-07-29T13:58:58;24.90;99.90
7814;DHT22;3952;48.364;16.022;2022-07-29T14:01:26;24.80;99.90
7814;DHT22;3952;48.364;16.022;2022-07-29T14:03:53;24.80;99.90
7814;DHT22;3952;48.364;16.022;2022-07-29T14:06:20;24.80;99.90
7814;DHT22;3952;48.364;16.022;2022-07-29T14:08:47;24.70;99.90
7814;DHT22;3952;48.364;16.022;2022-07-29T14:11:14;24.70;99.90
7814;DHT22;3952;48.364;16.022;2022-07-29T14:13:43;24.70;99.90
7814;DHT22;3952;48.364;16.022;2022-07-29T14:16:10;24.70;99.90
7814;DHT22;3952;48.364;16.022;2022-07-29T14:18:37;24.70;99.90
7814;DHT22;3952;48.364;16.022;2022-07-29T14:21:05;24.80;99.90
7814;DHT22;3952;48.364;16.022;2022-07-29T14:23:32;24.80;99.90
7814;DHT22;3952;48.364;16.022;2022-07-29T14:25:59;24.80;99.90
7814;DHT22;3952;48.364;16.022;2022-07-29T14:28:26;24.80;99.90
7814;DHT22;3952;48.364;16.022;2022-07-29T14:30:55;24.80;99.90
7814;DHT22;3952;48.364;16.022;2022-07-29T14:33:22;24.80;99.90
7814;DHT22;3952;48.364;16.022;2022-07-29T14:35:49;24.80;99.90
7814;DHT22;3952;48.364;16.022;2022-07-29T14:38:17;24.70;99.90
7814;DHT22;3952;48.364;16.022;2022-07-29T14:40:44;24.50;99.90
7814;DHT22;3952;48.364;16.022;2022-07-29T14:43:12;24.40;99.90
7814;DHT22;3952;48.364;16.022;2022-07-29T14:45:39;24.30;99.90
7814;DHT22;3952;48.364;16.022;2022-07-29T14:48:08;24.30;99.90
7814;DHT22;3952;48.364;16.022;2022-07-29T14:50:37;24.30;99.90
7814;DHT22;3952;48.364;16.022;2022-07-29T14:53:04;24.30;99.90
7814;DHT22;3952;48.364;16.022;2022-07-29T14:55:32;24.30;99.90
7814;DHT22;3952;48.364;16.022;2022-07-29T14:57:59;24.30;99.90
7814;DHT22;3952;48.364;16.022;2022-07-29T15:00:26;24.30;99.90
7814;DHT22;3952;48.364;16.022;2022-07-29T15:02:57;24.40;99.90
7814;DHT22;3952;48.364;16.022;2022-07-29T15:05:26;24.40;99.90
7814;DHT22;3952;48.364;16.022;2022-07-29T15:07:53;24.50;99.90
7814;DHT22;3952;48.364;16.022;2022-07-29T15:10:21;24.50;99.90
7814;DHT22;3952;48.364;16.022;2022-07-29T15:12:48;24.60;99.90
7814;DHT22;3952;48.364;16.022;2022-07-29T15:15:15;24.60;99.90
7814;DHT22;3952;48.364;16.022;2022-07-29T15:17:42;24.70;99.90
7814;DHT22;3952;48.364;16.022;2022-07-29T15:20:10;24.70;99.90
7814;DHT22;3952;48.364;16.022;2022-07-29T15:22:39;24.80;99.90
7814;DHT22;3952;48.364;16.022;2022-07-29T15:25:08;24.80;99.90
7814;DHT22;3952;48.364;16.022;2022-07-29T15:27:35;24.80;99.90
7814;DHT22;3952;48.364;16.022;2022-07-29T15:30:03;24.80;99.90
7814;DHT22;3952;48.364;16.022;2022-07-29T15:32:30;24.80;99.90
7814;DHT22;3952;48.364;16.022;2022-07-29T15:34:58;24.90;99.90
7814;DHT22;3952;48.364;16.022;2022-07-29T15:37:25;24.90;99.90
7814;DHT22;3952;48.364;16.022;2022-07-29T15:39:55;25.00;99.90
7814;DHT22;3952;48.364;16.022;2022-07-29T15:42:22;25.00;99.90
7814;DHT22;3952;48.364;16.022;2022-07-29T15:44:49;25.10;99.90
7814;DHT22;3952;48.364;16.022;2022-07-29T15:47:17;25.20;99.90
7814;DHT22;3952;48.364;16.022;2022-07-29T15:49:44;25.20;99.90
7814;DHT22;3952;48.364;16.022;2022-07-29T15:52:11;25.30;99.90
7814;DHT22;3952;48.364;16.022;2022-07-29T15:54:39;25.30;99.90
7814;DHT22;3952;48.364;16.022;2022-07-29T15:57:08;25.40;99.90
7814;DHT22;3952;48.364;16.022;2022-07-29T15:59:35;25.50;99.90
7814;DHT22;3952;48.364;16.022;2022-07-29T16:02:03;25.60;99.90